Flight Track Log - Related Links

Times and Time Zones

All times are in EDT time to prevent confusion due to time zone crossing. See the SKW5649 flight status page for this flight to view local times or setup timezone preferences in your user account.

Time Position Orientation Groundspeed Altitude Reporting Facility
EDT Latitude Longitude Course Direction KTS MPH feet Rate Location/Type
Mon 09:43:28 PM 39.8333 -104.7833 255° West 202 232 7,000  Level Denver TRACON
Mon 09:44:28 PM 39.8167 -104.8667 255° West 273 314 8,600 1,980 Climbing Denver TRACON
Mon 09:45:00 PM 39.7206 -105.0718 247° West  Level FlightAware Approximate
Mon 09:45:08 PM 39.7922 -104.9325 244° Southwest 277 319 10,300  Level Denver Center
Mon 09:46:00 PM 39.6758 -105.2059 247° West  Level FlightAware Approximate
Mon 09:46:10 PM 39.7625 -105.0389 250° West 311 358 12,300  Level Denver Center
Mon 09:47:00 PM 39.6368 -105.3429 248° West  Level FlightAware Approximate
Mon 09:47:12 PM 39.7236 -105.1475 245° Southwest 328 377 14,500  Level Denver Center
Mon 09:48:00 PM 39.5951 -105.4786 248° West  Level FlightAware Approximate
Mon 09:48:14 PM 39.6800 -105.2678 245° Southwest 341 392 16,600  Level Denver Center
Mon 09:49:00 PM 39.5516 -105.6085 255° West  Level FlightAware Approximate
Mon 09:49:16 PM 39.6389 -105.3842 245° Southwest 354 407 18,800  Level Denver Center
Mon 09:50:18 PM 39.5925 -105.5092 244° Southwest 360 414 21,000 1,790 Climbing Denver Center
Mon 09:51:20 PM 39.5489 -105.6272 244° Southwest 367 422 22,500 1,484 Climbing Denver Center
Mon 09:53:24 PM 39.4783 -105.8881 251° West 371 427 25,600 1,419 Climbing Denver Center
Mon 09:54:26 PM 39.4408 -106.0214 250° West 386 444 26,900 1,258 Climbing Denver Center
Mon 09:55:28 PM 39.3997 -106.1678 250° West 392 451 28,200 1,000 Climbing Denver Center
Mon 09:57:00 PM 39.3362 -106.3746 247° West  Level FlightAware Approximate
Mon 09:57:32 PM 39.3183 -106.4517 247° West 409 471 30,000  Level Denver Center
Mon 09:58:34 PM 39.2800 -106.5886 250° West 421 484 30,600 581 Climbing Denver Center
Mon 09:59:36 PM 39.2381 -106.7278 249° West 432 497 31,200 829 Climbing Denver Center
Mon 10:00:37 PM 39.1664 -106.8767 238° Southwest 434 499 32,300 1,232 Climbing Denver Center
Mon 10:02:00 PM 39.0836 -107.0470 236° Southwest  Level FlightAware Approximate
Mon 10:02:41 PM 39.0392 -107.1433 236° Southwest 417 480 35,000  Level Denver Center
Mon 10:03:43 PM 38.9800 -107.2639 238° Southwest 415 478 35,700 823 Climbing Denver Center
Mon 10:04:45 PM 38.9131 -107.4017 238° Southwest 409 471 36,700 823 Climbing Denver Center
Mon 10:05:47 PM 38.8567 -107.5178 238° Southwest 402 463 37,400 419 Climbing Denver Center
Mon 10:07:00 PM 38.7758 -107.6604 237° Southwest  Level FlightAware Approximate
Mon 10:07:51 PM 38.7322 -107.7703 237° Southwest 403 464 38,000  Level Denver Center
Mon 10:08:52 PM 38.6739 -107.8894 238° Southwest 409 471 38,000  Level Denver Center
Mon 10:10:00 PM 38.5931 -108.0167 239° Southwest  Level FlightAware Approximate
Mon 10:10:56 PM 38.5419 -108.1553 239° Southwest 428 493 38,000  Level Denver Center
Mon 10:11:58 PM 38.4689 -108.3028 238° Southwest 437 503 38,000  Level Denver Center
Mon 10:13:00 PM 38.4064 -108.4264 237° Southwest 435 501 38,000  Level Denver Center
Mon 10:14:01 PM 38.3333 -108.5697 237° Southwest 433 498 38,000  Level Denver Center
Mon 10:15:03 PM 38.2714 -108.6961 238° Southwest 436 502 38,000  Level Denver Center
Mon 10:16:05 PM 38.2081 -108.8186 237° Southwest 434 499 38,000  Level Denver Center
Mon 10:17:06 PM 38.1344 -108.9611 237° Southwest 432 497 38,000  Level Denver Center
Mon 10:18:08 PM 38.0722 -109.0867 238° Southwest 433 498 38,000  Level Denver Center
Mon 10:19:10 PM 38.0047 -109.2139 236° Southwest 428 493 38,000  Level Denver Center
Mon 10:20:12 PM 37.9319 -109.3575 237° Southwest 433 498 38,000  Level Denver Center
Mon 10:21:13 PM 37.8686 -109.4761 236° Southwest 427 491 38,000  Level Denver Center
Mon 10:22:15 PM 37.7958 -109.6175 237° Southwest 427 491 38,000  Level Denver Center
Mon 10:23:16 PM 37.7339 -109.7378 237° Southwest 427 491 38,000  Level Denver Center
Mon 10:24:18 PM 37.6708 -109.8564 236° Southwest 426 490 38,000  Level Denver Center
Mon 10:25:19 PM 37.5992 -109.9953 237° Southwest 424 488 38,000  Level Denver Center
Mon 10:26:21 PM 37.5361 -110.1142 236° Southwest 426 490 38,000  Level Denver Center
Mon 10:27:22 PM 37.4703 -110.2358 236° Southwest 427 491 38,000  Level Denver Center
Mon 10:28:24 PM 37.4042 -110.3592 236° Southwest 426 490 38,000  Level Denver Center
Mon 10:29:25 PM 37.3253 -110.5075 236° Southwest 424 488 38,000  Level Denver Center
Mon 10:30:27 PM 37.2589 -110.6314 236° Southwest 428 493 38,000  Level Denver Center
Mon 10:32:35 PM 37.1222 -110.8814 236° Southwest 430 495 38,000 33 Level Los Angeles Center
Mon 10:33:31 PM 37.0575 -111.0036 236° Southwest 427 491 38,100  Climbing Denver Center
Mon 10:34:33 PM 36.9919 -111.1261 236° Southwest 425 489 38,000 -49 Descending Denver Center
Mon 10:35:34 PM 36.9256 -111.2472 236° Southwest 423 487 38,000  Level Denver Center
Mon 10:37:43 PM 36.7775 -111.5128 235° Southwest 420 483 38,000  Level Los Angeles Center
Mon 10:38:39 PM 36.7139 -111.6317 236° Southwest 422 486 38,000  Level Denver Center
Mon 10:39:40 PM 36.6469 -111.7503 235° Southwest 419 482 38,000  Level Denver Center
Mon 10:40:41 PM 36.5803 -111.8708 235° Southwest 421 484 38,000 49 Level Denver Center
Mon 10:41:43 PM 36.5139 -111.9892 235° Southwest 417 480 38,100  Climbing Denver Center
Mon 10:42:44 PM 36.4472 -112.1078 235° Southwest 417 480 38,000 -49 Descending Denver Center
Mon 10:43:46 PM 36.3803 -112.2272 235° Southwest 419 482 38,000  Level Denver Center
Mon 10:44:54 PM 36.2997 -112.3686 235° Southwest 421 484 38,000  Level Los Angeles Center
Mon 10:45:55 PM 36.2322 -112.4869 235° Southwest 419 482 38,000  Level Los Angeles Center
Mon 10:46:57 PM 36.1661 -112.6056 235° Southwest 419 482 38,000  Level Los Angeles Center
Mon 10:47:58 PM 36.0975 -112.7236 234° Southwest 420 483 38,000  Level Los Angeles Center
Mon 10:49:00 PM 36.0417 -112.8461 241° Southwest 411 473 38,000  Level Los Angeles Center
Mon 10:50:02 PM 36.0011 -112.9781 249° West 409 471 38,000  Level Los Angeles Center
Mon 10:51:03 PM 35.9522 -113.1239 248° West 408 470 38,000  Level Los Angeles Center
Mon 10:52:04 PM 35.9106 -113.2550 249° West 411 473 38,000  Level Los Angeles Center
Mon 10:53:06 PM 35.8678 -113.3844 248° West 412 474 38,000  Level Los Angeles Center
Mon 10:55:09 PM 35.7808 -113.6458 248° West 410 472 38,000  Level Los Angeles Center
Mon 10:56:10 PM 35.7372 -113.7744 247° West 408 470 38,000  Level Los Angeles Center
Mon 10:57:11 PM 35.6972 -113.8944 248° West 404 465 38,000 49 Level Los Angeles Center
Mon 10:58:13 PM 35.6467 -114.0464 248° West 404 465 38,100 -387 Climbing Los Angeles Center
Mon 10:59:15 PM 35.6039 -114.1714 247° West 401 461 37,200 -976 Descending Los Angeles Center
Mon 11:00:16 PM 35.5572 -114.3058 247° West 394 453 36,100 -889 Descending Los Angeles Center
Mon 11:01:30 PM 35.5167 -114.4231 247° West 376 433 35,200 -640 Descending Los Angeles Center
Mon 11:03:00 PM 35.4510 -114.6053 246° West  Level FlightAware Approximate
Mon 11:03:33 PM 35.4319 -114.6706 246° West 354 407 34,000  Level Los Angeles Center
Mon 11:04:35 PM 35.3925 -114.7858 247° West 363 418 34,000  Level Los Angeles Center
Mon 11:05:36 PM 35.3519 -114.9047 247° West 374 430 34,000 -146 Level Los Angeles Center
Mon 11:06:38 PM 35.3106 -115.0225 247° West 376 433 33,700 -732 Descending Los Angeles Center
Mon 11:07:39 PM 35.2619 -115.1675 248° West 380 437 32,500 -1,073 Descending Los Angeles Center
Mon 11:08:41 PM 35.2197 -115.2850 246° West 377 434 31,500 -919 Descending Los Angeles Center
Mon 11:09:43 PM 35.1831 -115.3900 247° West 378 435 30,600 -927 Descending Los Angeles Center
Mon 11:10:44 PM 35.1406 -115.5092 246° West 382 440 29,600 -976 Descending Los Angeles Center
Mon 11:11:46 PM 35.0978 -115.6306 247° West 387 445 28,600 -1,073 Descending Los Angeles Center
Mon 11:12:47 PM 35.0467 -115.7742 247° West 386 444 27,400 -1,073 Descending Los Angeles Center
Mon 11:13:49 PM 35.0033 -115.8936 246° West 387 445 26,400 -968 Descending Los Angeles Center
Mon 11:14:51 PM 34.9589 -116.0144 246° West 390 449 25,400 -976 Descending Los Angeles Center
Mon 11:15:52 PM 34.9150 -116.1353 246° West 390 449 24,400 -976 Descending Los Angeles Center
Mon 11:16:54 PM 34.8725 -116.2572 247° West 390 449 23,400 -1,024 Descending Los Angeles Center
Mon 11:17:55 PM 34.8275 -116.3789 246° West 393 452 22,300 -1,024 Descending Los Angeles Center
Mon 11:18:57 PM 34.7922 -116.5000 251° West 385 443 21,300 -968 Descending Los Angeles Center
Mon 11:19:59 PM 34.7817 -116.6256 264° West 374 430 20,300 -634 Descending Los Angeles Center
Mon 11:21:00 PM 34.7669 -116.7750 263° West 371 427 20,000 -146 Descending Los Angeles Center
Mon 11:22:02 PM 34.7536 -116.9058 263° West 386 444 20,000  Level Los Angeles Center
Mon 11:23:04 PM 34.7392 -117.0342 262° West 385 443 20,000 -435 Level Los Angeles Center
Mon 11:24:06 PM 34.7261 -117.1603 263° West 380 437 19,100 -927 Descending Los Angeles Center
Mon 11:25:07 PM 34.7131 -117.2858 263° West 375 432 18,100 -976 Descending Los Angeles Center
Mon 11:26:09 PM 34.7000 -117.4117 263° West 375 432 17,100 -1,016 Descending Los Angeles Center
Mon 11:27:11 PM 34.6872 -117.5406 263° West 380 437 16,000 -976 Descending Los Angeles Center
Mon 11:28:12 PM 34.6742 -117.6681 263° West 379 436 15,100 -976 Descending Los Angeles Center
Mon 11:29:14 PM 34.6611 -117.7908 263° West 366 421 14,000 -1,355 Descending Los Angeles Center
Mon 11:30:16 PM 34.6458 -117.9344 263° West 353 406 12,300 -1,366 Descending Los Angeles Center
Mon 11:31:17 PM 34.6331 -118.0464 262° West 339 390 11,200 -1,122 Descending Los Angeles Center
Mon 11:32:19 PM 34.6119 -118.1558 257° West 320 368 10,000 -1,016 Descending Los Angeles Center
Mon 11:33:21 PM 34.5939 -118.2336 254° West 277 319 9,100 -968 Descending Los Angeles Center
Mon 11:34:23 PM 34.5708 -118.3392 255° West 271 312 8,000 -537 Descending Los Angeles Center
Mon 11:35:24 PM 34.5517 -118.4228 254° West 261 300 8,000 -390 Level Los Angeles Center
Mon 11:36:26 PM 34.5125 -118.4897 235° Southwest 246 283 7,200 -823 Descending Los Angeles Center
Mon 11:37:28 PM 34.4614 -118.5539 226° Southwest 260 299 6,300 -581 Descending Los Angeles Center
Mon 11:38:30 PM 34.3958 -118.5789 197° South 250 288 6,000 -319 Descending Los Angeles Center
Mon 11:39:21 PM 34.3333 -118.6000 196° South 235 270 5,700 -514 Descending Southern California TRACON
Mon 11:40:15 PM 34.2833 -118.6000 180° South 219 252 5,100 -700 Descending Southern California TRACON
Mon 11:41:21 PM 34.2167 -118.5833 168° South 213 245 4,300 -900 Descending Southern California TRACON
Mon 11:42:15 PM 34.2000 -118.5167 107° East 206 237 3,300 -1,111 Descending Southern California TRACON

Login

Don't have an account? Register now (free) for customized features, flight alerts, and more!